createdAt,value
2023-04-03T00:00:18.563Z,5.50
2023-04-03T00:02:45.243Z,5.49
2023-04-03T00:05:11.846Z,5.50
2023-04-03T00:07:38.528Z,5.50
2023-04-03T00:10:05.770Z,5.51
2023-04-03T00:12:32.416Z,5.52
2023-04-03T00:14:59.136Z,5.54
2023-04-03T00:17:26.369Z,5.55
2023-04-03T00:19:52.923Z,5.56
2023-04-03T00:22:19.664Z,5.59
2023-04-03T00:24:46.305Z,5.61
2023-04-03T00:27:12.846Z,5.62
2023-04-03T00:29:39.942Z,5.64
2023-04-03T00:32:06.512Z,5.65
2023-04-03T00:34:33.119Z,5.66
2023-04-03T00:36:59.897Z,5.68
2023-04-03T00:39:27.151Z,5.66
2023-04-03T00:41:54.148Z,5.64
2023-04-03T00:44:43.816Z,5.62
2023-04-03T00:47:14.608Z,5.64
2023-04-03T00:49:42.038Z,5.64
2023-04-03T00:52:12.753Z,5.65
2023-04-03T00:54:41.916Z,5.67
2023-04-03T00:57:09.805Z,5.67
2023-04-03T00:59:41.302Z,5.66
2023-04-03T01:02:08.021Z,5.68
2023-04-03T01:04:40.070Z,5.68
2023-04-03T01:07:13.992Z,5.72
2023-04-03T01:09:41.398Z,5.75
2023-04-03T01:12:20.484Z,5.74
2023-04-03T01:14:54.287Z,5.75
2023-04-03T01:17:41.022Z,5.71
2023-04-03T01:20:34.059Z,5.66
2023-04-03T01:23:10.125Z,5.68
2023-04-03T01:25:48.868Z,5.66
2023-04-03T01:28:23.246Z,5.62
2023-04-03T01:31:28.853Z,5.57
2023-04-03T01:33:56.641Z,5.56
2023-04-03T01:36:30.591Z,5.55
2023-04-03T01:38:59.351Z,5.55
2023-04-03T01:41:26.793Z,5.55
2023-04-03T01:43:58.474Z,5.57
2023-04-03T01:46:25.296Z,5.57
2023-04-03T01:48:52.161Z,5.57
2023-04-03T01:51:18.752Z,5.58
2023-04-03T01:53:45.318Z,5.59
2023-04-03T01:56:12.066Z,5.61
2023-04-03T01:58:39.058Z,5.62
2023-04-03T02:01:06.309Z,5.64
2023-04-03T02:03:33.387Z,5.65
2023-04-03T02:06:01.002Z,5.66
2023-04-03T02:08:27.674Z,5.68
2023-04-03T02:10:54.293Z,5.69
2023-04-03T02:13:21.121Z,5.68
2023-04-03T02:15:48.169Z,5.70
2023-04-03T02:18:18.168Z,5.68
2023-04-03T02:20:44.784Z,5.70
2023-04-03T02:23:11.884Z,5.71
2023-04-03T02:25:38.976Z,5.74
2023-04-03T02:28:06.361Z,5.74
2023-04-03T02:30:33.151Z,5.72
2023-04-03T02:32:59.926Z,5.72
2023-04-03T02:35:27.502Z,5.72
2023-04-03T02:37:56.495Z,5.74
2023-04-03T02:40:23.494Z,5.72
2023-04-03T02:42:50.964Z,5.72
2023-04-03T02:45:19.072Z,5.72
2023-04-03T02:47:45.737Z,5.72
2023-04-03T02:50:12.341Z,5.72
2023-04-03T02:52:39.065Z,5.73
2023-04-03T02:55:06.298Z,5.74
2023-04-03T02:57:33.346Z,5.72
2023-04-03T02:59:59.974Z,5.73
2023-04-03T03:02:26.697Z,5.74
2023-04-03T03:04:53.355Z,5.77
2023-04-03T03:07:19.993Z,5.75
2023-04-03T03:09:46.715Z,5.73
2023-04-03T03:12:13.462Z,5.75
2023-04-03T03:14:40.248Z,5.75
2023-04-03T03:17:06.923Z,5.76
2023-04-03T03:19:34.165Z,5.77
2023-04-03T03:22:00.848Z,5.79
2023-04-03T03:24:27.500Z,5.78
2023-04-03T03:26:54.334Z,5.79
2023-04-03T03:29:20.998Z,5.81
2023-04-03T03:31:47.807Z,5.79
2023-04-03T03:34:15.088Z,5.79
2023-04-03T03:36:41.828Z,5.76
2023-04-03T03:39:08.468Z,5.77
2023-04-03T03:41:35.095Z,5.74
2023-04-03T03:44:03.118Z,5.73
2023-04-03T03:46:32.089Z,5.72
2023-04-03T03:48:58.784Z,5.74
2023-04-03T03:51:25.439Z,5.72
2023-04-03T03:53:52.091Z,5.68
2023-04-03T03:56:20.111Z,5.68
2023-04-03T03:58:46.940Z,5.67
2023-04-03T04:01:14.094Z,5.65
2023-04-03T04:03:45.667Z,5.61
2023-04-03T04:06:17.444Z,5.60
2023-04-03T04:08:44.392Z,5.57
2023-04-03T04:11:12.642Z,5.58
2023-04-03T04:13:40.415Z,5.60
2023-04-03T04:16:08.388Z,5.60
2023-04-03T04:18:35.205Z,5.58
2023-04-03T04:21:01.967Z,5.58
2023-04-03T04:23:29.495Z,5.57
2023-04-03T04:25:58.879Z,5.56
2023-04-03T04:28:26.865Z,5.56
2023-04-03T04:30:55.516Z,5.57
2023-04-03T04:33:25.357Z,5.60
2023-04-03T04:35:52.126Z,5.60
2023-04-03T04:38:20.894Z,5.61
2023-04-03T04:40:49.269Z,5.60
2023-04-03T04:43:18.091Z,5.61
2023-04-03T04:45:47.724Z,5.62
2023-04-03T04:48:17.440Z,5.64
2023-04-03T04:50:44.145Z,5.64
2023-04-03T04:53:10.763Z,5.65
2023-04-03T04:55:37.859Z,5.63
2023-04-03T04:58:05.030Z,5.60
2023-04-03T05:00:31.804Z,5.60
2023-04-03T05:02:58.425Z,5.60
2023-04-03T05:05:25.198Z,5.63
2023-04-03T05:07:52.532Z,5.62
2023-04-03T05:10:19.191Z,5.60
2023-04-03T05:12:47.088Z,5.62
2023-04-03T05:15:17.172Z,5.59
2023-04-03T05:17:44.805Z,5.56
2023-04-03T05:20:14.392Z,5.58
2023-04-03T05:22:42.622Z,5.57
2023-04-03T05:25:11.405Z,5.58
2023-04-03T05:27:40.978Z,5.61
2023-04-03T05:30:09.173Z,5.59
2023-04-03T05:32:37.905Z,5.60
2023-04-03T05:35:19.718Z,5.58
2023-04-03T05:37:49.506Z,5.56
2023-04-03T05:40:18.681Z,5.56
2023-04-03T05:42:47.455Z,5.58
2023-04-03T05:45:16.139Z,5.56
2023-04-03T05:47:42.835Z,5.56
2023-04-03T05:50:09.941Z,5.54
2023-04-03T05:52:41.373Z,5.53
2023-04-03T05:55:08.525Z,5.54
2023-04-03T05:57:35.994Z,5.54
2023-04-03T06:00:06.399Z,5.55
2023-04-03T06:02:41.135Z,5.59
2023-04-03T06:05:11.294Z,5.57
2023-04-03T06:07:38.002Z,5.56
2023-04-03T06:10:05.440Z,5.55
2023-04-03T06:12:32.234Z,5.58
2023-04-03T06:14:58.953Z,5.64
2023-04-03T06:17:25.717Z,5.64
2023-04-03T06:19:53.707Z,5.64
2023-04-03T06:22:20.730Z,5.60
2023-04-03T06:24:47.508Z,5.61
2023-04-03T06:27:14.106Z,5.63
2023-04-03T06:29:40.698Z,5.66
2023-04-03T06:32:07.384Z,5.70
2023-04-03T06:34:33.948Z,5.76
2023-04-03T06:37:00.537Z,5.82
2023-04-03T06:39:27.140Z,5.84
2023-04-03T06:41:53.891Z,5.90
2023-04-03T06:44:28.708Z,5.96
2023-04-03T06:46:55.325Z,5.92
2023-04-03T06:49:22.105Z,5.88
2023-04-03T06:51:48.784Z,5.86
2023-04-03T06:54:15.348Z,5.87
2023-04-03T06:56:42.007Z,5.90
2023-04-03T06:59:08.667Z,5.91
2023-04-03T07:01:35.395Z,5.93
2023-04-03T07:04:01.999Z,5.91
2023-04-03T07:06:28.962Z,5.99
2023-04-03T07:08:56.422Z,6.01
2023-04-03T07:11:23.341Z,6.03
2023-04-03T07:13:50.764Z,6.04
2023-04-03T07:16:19.540Z,6.07
2023-04-03T07:18:46.839Z,6.13
2023-04-03T07:21:13.917Z,6.16
2023-04-03T07:23:40.682Z,6.18
2023-04-03T07:26:07.348Z,6.21
2023-04-03T07:28:34.137Z,6.25
2023-04-03T07:31:07.228Z,6.30
2023-04-03T07:33:34.174Z,6.40
2023-04-03T07:36:00.895Z,6.54
2023-04-03T07:38:27.692Z,6.58
2023-04-03T07:40:54.397Z,6.60
2023-04-03T07:43:22.714Z,6.67
2023-04-03T07:45:50.359Z,6.71
2023-04-03T07:48:18.699Z,6.65
2023-04-03T07:50:45.545Z,6.67
2023-04-03T07:53:12.322Z,6.75
2023-04-03T07:55:39.223Z,6.79
2023-04-03T07:58:05.927Z,6.72
2023-04-03T08:00:32.662Z,6.81
2023-04-03T08:02:59.455Z,6.79
2023-04-03T08:05:26.064Z,6.71
2023-04-03T08:07:52.665Z,6.71
2023-04-03T08:10:19.411Z,6.67
2023-04-03T08:12:49.667Z,6.62
2023-04-03T08:15:16.544Z,6.60
2023-04-03T08:17:43.299Z,6.64
2023-04-03T08:20:11.486Z,6.73
2023-04-03T08:22:38.453Z,6.80
2023-04-03T08:25:05.369Z,6.86
2023-04-03T08:27:34.370Z,6.95
2023-04-03T08:30:00.949Z,7.00
2023-04-03T08:32:27.886Z,7.03
2023-04-03T08:34:54.703Z,7.16
2023-04-03T08:37:21.439Z,7.22
2023-04-03T08:39:48.164Z,7.23
2023-04-03T08:42:35.850Z,7.40
2023-04-03T08:45:11.329Z,7.39
2023-04-03T08:47:53.937Z,7.42
2023-04-03T08:50:26.123Z,7.44
2023-04-03T08:53:00.311Z,7.45
2023-04-03T08:55:35.741Z,7.45
2023-04-03T08:58:06.618Z,7.49
2023-04-03T09:00:45.688Z,7.66
2023-04-03T09:03:17.875Z,7.72
2023-04-03T09:05:51.935Z,7.79
2023-04-03T09:08:29.394Z,7.91
2023-04-03T09:11:19.683Z,8.16
2023-04-03T09:14:03.530Z,8.26
2023-04-03T09:16:50.456Z,8.21
2023-04-03T09:19:32.515Z,8.23
2023-04-03T09:22:21.959Z,8.20
2023-04-03T09:24:56.894Z,8.15
2023-04-03T09:27:23.609Z,8.09
2023-04-03T09:29:55.868Z,8.06
2023-04-03T09:32:35.246Z,7.98
2023-04-03T09:35:21.873Z,7.95
2023-04-03T09:37:54.737Z,7.92
2023-04-03T09:40:27.437Z,7.92
2023-04-03T09:43:01.227Z,7.92
2023-04-03T09:45:31.653Z,7.90
2023-04-03T09:48:15.460Z,7.94
2023-04-03T09:50:51.860Z,8.03
2023-04-03T09:53:29.120Z,8.21
2023-04-03T09:55:56.056Z,8.23
2023-04-03T09:58:46.720Z,8.35
2023-04-03T10:01:38.017Z,8.48
2023-04-03T10:04:12.166Z,8.56
2023-04-03T10:06:42.308Z,8.65
2023-04-03T10:09:25.936Z,8.54
2023-04-03T10:12:04.128Z,8.54
2023-04-03T10:14:30.810Z,8.61
2023-04-03T10:17:10.428Z,8.67
2023-04-03T10:19:44.849Z,8.64
2023-04-03T10:22:19.790Z,8.67
2023-04-03T10:25:02.151Z,8.69
2023-04-03T10:27:59.721Z,8.65
2023-04-03T10:30:35.590Z,8.54
2023-04-03T10:33:19.369Z,8.48
2023-04-03T10:36:04.219Z,8.46
2023-04-03T10:38:43.809Z,8.46
2023-04-03T10:41:33.045Z,8.55
2023-04-03T10:44:46.349Z,8.45
2023-04-03T10:47:32.709Z,8.30
2023-04-03T10:50:32.550Z,8.19
2023-04-03T10:53:30.642Z,8.09
2023-04-03T10:56:08.610Z,8.02
2023-04-03T10:58:44.223Z,7.95
2023-04-03T11:01:17.571Z,7.92
2023-04-03T11:03:52.149Z,7.94
2023-04-03T11:06:23.387Z,7.94
2023-04-03T11:08:55.052Z,7.93
2023-04-03T11:11:37.171Z,7.94
2023-04-03T11:14:12.137Z,8.02
2023-04-03T11:16:53.352Z,8.04
2023-04-03T11:19:28.036Z,8.07
2023-04-03T11:22:02.775Z,8.05
2023-04-03T11:24:33.619Z,8.01
2023-04-03T11:27:02.813Z,7.92
2023-04-03T11:29:36.315Z,7.81
2023-04-03T11:32:18.169Z,7.75
2023-04-03T11:34:50.200Z,7.72
2023-04-03T11:37:35.272Z,7.70
2023-04-03T11:40:07.236Z,7.78
2023-04-03T11:42:43.027Z,7.79
2023-04-03T11:45:30.232Z,8.02
2023-04-03T11:48:10.183Z,8.13
2023-04-03T11:50:47.118Z,8.08
2023-04-03T11:53:13.651Z,8.04
2023-04-03T11:55:48.910Z,8.14
2023-04-03T11:58:17.410Z,8.16
2023-04-03T12:01:01.188Z,8.25
2023-04-03T12:03:35.377Z,8.29
2023-04-03T12:06:07.790Z,8.35
2023-04-03T12:08:34.406Z,8.46
2023-04-03T12:11:10.059Z,8.49
2023-04-03T12:13:55.140Z,8.60
2023-04-03T12:16:23.138Z,8.61
2023-04-03T12:18:49.840Z,8.56
2023-04-03T12:21:18.927Z,8.59
2023-04-03T12:24:08.916Z,8.62
2023-04-03T12:26:49.805Z,8.69
2023-04-03T12:29:28.285Z,8.72
2023-04-03T12:32:11.000Z,8.80
2023-04-03T12:34:44.328Z,8.90
2023-04-03T12:37:44.264Z,8.91
2023-04-03T12:40:39.292Z,8.96
2023-04-03T12:43:05.940Z,9.15
2023-04-03T12:45:45.244Z,9.14
2023-04-03T12:48:16.854Z,9.15
2023-04-03T12:50:47.543Z,9.14
2023-04-03T12:53:19.058Z,9.16
2023-04-03T12:55:45.873Z,9.14
2023-04-03T12:58:38.863Z,9.10
2023-04-03T13:01:13.447Z,9.16
2023-04-03T13:03:44.448Z,9.36
2023-04-03T13:06:22.194Z,9.51
2023-04-03T13:08:57.757Z,9.52
2023-04-03T13:11:26.413Z,9.50
2023-04-03T13:14:00.838Z,9.44
2023-04-03T13:16:28.061Z,9.41
2023-04-03T13:18:56.429Z,9.40
2023-04-03T13:21:27.495Z,9.46
2023-04-03T13:24:07.628Z,9.50
2023-04-03T13:26:41.418Z,9.63
2023-04-03T13:29:30.889Z,9.76
2023-04-03T13:31:59.565Z,9.82
2023-04-03T13:34:37.969Z,9.76
2023-04-03T13:37:05.707Z,9.74
2023-04-03T13:39:37.766Z,9.71
2023-04-03T13:42:23.499Z,9.73
2023-04-03T13:44:50.629Z,9.72
2023-04-03T13:47:19.502Z,9.57
2023-04-03T13:50:01.901Z,9.57
2023-04-03T13:52:35.918Z,9.53
2023-04-03T13:55:24.552Z,9.41
2023-04-03T13:58:20.682Z,9.30
2023-04-03T14:00:47.338Z,9.23
2023-04-03T14:03:41.552Z,9.11
2023-04-03T14:06:13.624Z,9.03
2023-04-03T14:08:43.467Z,9.01
2023-04-03T14:11:16.514Z,8.93
2023-04-03T14:13:44.606Z,8.87
2023-04-03T14:16:16.390Z,8.77
2023-04-03T14:18:45.462Z,8.87
2023-04-03T14:21:13.961Z,9.02
2023-04-03T14:23:40.900Z,9.11
2023-04-03T14:26:22.147Z,9.04
2023-04-03T14:28:51.531Z,9.00
2023-04-03T14:31:19.035Z,9.08
2023-04-03T14:33:46.712Z,9.12
2023-04-03T14:36:25.909Z,9.00
2023-04-03T14:38:53.414Z,8.98
2023-04-03T14:41:22.900Z,8.93
2023-04-03T14:43:50.762Z,9.11
2023-04-03T14:46:55.515Z,9.15
2023-04-03T14:49:26.623Z,9.03
2023-04-03T14:51:53.458Z,8.99
2023-04-03T14:54:23.087Z,8.92
2023-04-03T14:56:49.756Z,8.93
2023-04-03T14:59:16.537Z,8.92
2023-04-03T15:01:43.120Z,8.97
2023-04-03T15:04:21.601Z,9.03
2023-04-03T15:06:49.949Z,9.08
2023-04-03T15:09:20.302Z,9.07
2023-04-03T15:11:47.407Z,9.22
2023-04-03T15:14:16.770Z,9.56
2023-04-03T15:16:51.326Z,9.63
2023-04-03T15:19:17.954Z,9.68
2023-04-03T15:21:44.814Z,9.58
2023-04-03T15:24:11.480Z,9.57
2023-04-03T15:26:38.654Z,9.50
2023-04-03T15:29:05.949Z,9.48
2023-04-03T15:31:33.011Z,9.38
2023-04-03T15:34:00.141Z,9.36
2023-04-03T15:36:34.090Z,9.31
2023-04-03T15:39:01.675Z,9.32
2023-04-03T15:41:28.316Z,9.46
2023-04-03T15:43:54.938Z,9.74
2023-04-03T15:46:21.650Z,10.07
2023-04-03T15:48:48.320Z,10.38
2023-04-03T15:51:15.109Z,10.52
2023-04-03T15:53:41.770Z,10.61
2023-04-03T15:56:08.552Z,10.78
2023-04-03T15:58:35.194Z,10.86
2023-04-03T16:01:03.229Z,10.79
2023-04-03T16:03:30.816Z,10.72
2023-04-03T16:05:57.841Z,10.53
2023-04-03T16:08:24.520Z,10.33
2023-04-03T16:10:51.382Z,10.20
2023-04-03T16:13:17.933Z,9.93
2023-04-03T16:15:44.690Z,9.79
2023-04-03T16:18:11.545Z,9.59
2023-04-03T16:20:38.574Z,9.40
2023-04-03T16:23:05.914Z,9.26
2023-04-03T16:25:32.690Z,9.15
2023-04-03T16:27:59.344Z,9.05
2023-04-03T16:30:26.679Z,9.00
2023-04-03T16:32:53.439Z,9.00
2023-04-03T16:35:20.267Z,8.95
2023-04-03T16:37:46.992Z,8.87
2023-04-03T16:40:13.957Z,8.81
2023-04-03T16:42:40.743Z,8.70
2023-04-03T16:45:08.346Z,8.60
2023-04-03T16:47:35.403Z,8.51
2023-04-03T16:50:02.095Z,8.46
2023-04-03T16:52:28.714Z,8.45
2023-04-03T16:54:55.397Z,8.37
2023-04-03T16:57:23.507Z,8.36
2023-04-03T16:59:50.840Z,8.26
2023-04-03T17:02:17.533Z,8.28
2023-04-03T17:04:44.198Z,8.25
2023-04-03T17:07:10.824Z,8.10
2023-04-03T17:09:37.471Z,7.99
2023-04-03T17:12:04.077Z,7.94
2023-04-03T17:14:30.771Z,7.88
2023-04-03T17:16:57.439Z,7.77
2023-04-03T17:19:24.092Z,7.69
2023-04-03T17:21:50.705Z,7.66
2023-04-03T17:24:18.053Z,7.51
2023-04-03T17:26:44.729Z,7.40
2023-04-03T17:29:11.376Z,7.34
2023-04-03T17:31:38.163Z,7.28
2023-04-03T17:34:04.824Z,7.23
2023-04-03T17:36:33.832Z,7.16
2023-04-03T17:39:01.148Z,7.12
2023-04-03T17:41:27.764Z,7.05
2023-04-03T17:43:54.376Z,7.00
2023-04-03T17:46:20.943Z,6.97
2023-04-03T17:48:47.555Z,6.93
2023-04-03T17:51:16.776Z,6.91
2023-04-03T17:53:43.652Z,6.88
2023-04-03T17:56:13.889Z,6.81
2023-04-03T17:58:40.548Z,6.85
2023-04-03T18:01:19.483Z,6.88
2023-04-03T18:03:47.082Z,6.79
2023-04-03T18:06:19.850Z,6.69
2023-04-03T18:08:50.064Z,6.62
2023-04-03T18:11:17.924Z,6.58
2023-04-03T18:13:46.140Z,6.57
2023-04-03T18:16:13.824Z,6.53
2023-04-03T18:18:40.937Z,6.46
2023-04-03T18:21:10.725Z,6.41
2023-04-03T18:23:41.935Z,6.39
2023-04-03T18:26:12.323Z,6.39
2023-04-03T18:28:42.703Z,6.33
2023-04-03T18:31:10.537Z,6.29
2023-04-03T18:33:37.573Z,6.24
2023-04-03T18:36:05.420Z,6.20
2023-04-03T18:38:32.151Z,6.16
2023-04-03T18:41:00.440Z,6.13
2023-04-03T18:43:26.997Z,6.05
2023-04-03T18:45:54.221Z,6.07
2023-04-03T18:48:20.985Z,6.03
2023-04-03T18:50:48.882Z,6.02
2023-04-03T18:53:15.546Z,6.00
2023-04-03T18:55:42.347Z,5.95
2023-04-03T18:58:09.197Z,5.91
2023-04-03T19:00:35.947Z,5.87
2023-04-03T19:03:02.711Z,5.81
2023-04-03T19:05:29.457Z,5.77
2023-04-03T19:07:56.118Z,5.71
2023-04-03T19:10:22.983Z,5.65
2023-04-03T19:12:51.169Z,5.57
2023-04-03T19:15:19.290Z,5.49
2023-04-03T19:17:45.988Z,5.45
2023-04-03T19:20:13.649Z,5.41
2023-04-03T19:22:40.927Z,5.35
2023-04-03T19:25:09.776Z,5.30
2023-04-03T19:27:37.449Z,5.26
2023-04-03T19:30:09.565Z,5.20
2023-04-03T19:32:36.258Z,5.16
2023-04-03T19:35:03.235Z,5.10
2023-04-03T19:37:29.873Z,5.04
2023-04-03T19:39:56.468Z,4.96
2023-04-03T19:42:23.211Z,4.93
2023-04-03T19:44:51.171Z,4.89
2023-04-03T19:47:17.829Z,4.86
2023-04-03T19:49:44.370Z,4.82
2023-04-03T19:52:11.232Z,4.78
2023-04-03T19:54:37.837Z,4.72
2023-04-03T19:57:04.505Z,4.68
2023-04-03T19:59:31.218Z,4.63
2023-04-03T20:01:57.930Z,4.57
2023-04-03T20:04:24.603Z,4.54
2023-04-03T20:06:51.250Z,4.47
2023-04-03T20:09:17.821Z,4.43
2023-04-03T20:11:45.220Z,4.36
2023-04-03T20:14:11.994Z,4.31
2023-04-03T20:16:38.596Z,4.25
2023-04-03T20:19:05.293Z,4.21
2023-04-03T20:21:33.756Z,4.13
2023-04-03T20:24:01.904Z,4.08
2023-04-03T20:26:29.704Z,3.96
2023-04-03T20:28:57.275Z,3.90
2023-04-03T20:31:25.595Z,3.89
2023-04-03T20:33:52.432Z,3.84
2023-04-03T20:36:19.634Z,3.79
2023-04-03T20:38:47.160Z,3.73
2023-04-03T20:41:15.458Z,3.67
2023-04-03T20:43:43.513Z,3.62
2023-04-03T20:46:10.740Z,3.56
2023-04-03T20:48:37.591Z,3.51
2023-04-03T20:51:16.560Z,3.44
2023-04-03T20:53:43.298Z,3.40
2023-04-03T20:56:10.012Z,3.34
2023-04-03T20:58:37.898Z,3.31
2023-04-03T21:01:16.829Z,3.25
2023-04-03T21:03:43.912Z,3.20
2023-04-03T21:06:48.383Z,3.15
2023-04-03T21:09:52.414Z,3.09
2023-04-03T21:12:56.806Z,3.04
2023-04-03T21:15:48.364Z,2.99
2023-04-03T21:18:58.337Z,2.93
2023-04-03T21:21:26.493Z,2.93
2023-04-03T21:23:54.943Z,2.89
2023-04-03T21:26:22.623Z,2.89
2023-04-03T21:28:52.829Z,2.86
2023-04-03T21:31:22.978Z,2.86
2023-04-03T21:33:50.404Z,2.85
2023-04-03T21:36:17.119Z,2.85
2023-04-03T21:38:43.709Z,2.86
2023-04-03T21:41:10.246Z,2.87
2023-04-03T21:43:36.824Z,2.88
2023-04-03T21:46:03.476Z,2.94
2023-04-03T21:48:30.164Z,2.95
2023-04-03T21:51:05.878Z,2.98
2023-04-03T21:53:32.560Z,3.03
2023-04-03T21:55:59.205Z,3.07
2023-04-03T21:58:32.422Z,3.10
2023-04-03T22:01:32.130Z,3.15
2023-04-03T22:03:59.295Z,3.18
2023-04-03T22:06:26.270Z,3.23
2023-04-03T22:08:52.965Z,3.25
2023-04-03T22:11:19.632Z,3.26
2023-04-03T22:13:46.197Z,3.32
2023-04-03T22:16:12.841Z,3.32
2023-04-03T22:18:39.569Z,3.33
2023-04-03T22:21:06.585Z,3.34
2023-04-03T22:23:33.187Z,3.36
2023-04-03T22:26:08.100Z,3.36
2023-04-03T22:28:38.381Z,3.36
2023-04-03T22:31:06.764Z,3.37
2023-04-03T22:33:37.395Z,3.36
2023-04-03T22:36:05.380Z,3.32
2023-04-03T22:38:32.333Z,3.31
2023-04-03T22:41:00.373Z,3.33
2023-04-03T22:43:28.331Z,3.32
2023-04-03T22:45:55.940Z,3.31
2023-04-03T22:48:23.685Z,3.32
2023-04-03T22:50:51.240Z,3.31
2023-04-03T22:53:18.430Z,3.33
2023-04-03T22:55:53.306Z,3.34
2023-04-03T22:58:19.925Z,3.33
2023-04-03T23:00:46.675Z,3.32
2023-04-03T23:03:13.419Z,3.31
2023-04-03T23:05:40.051Z,3.33
2023-04-03T23:08:06.636Z,3.35
2023-04-03T23:10:33.308Z,3.36
2023-04-03T23:12:59.883Z,3.35
2023-04-03T23:15:26.539Z,3.35
2023-04-03T23:17:53.301Z,3.39
2023-04-03T23:20:19.973Z,3.38
2023-04-03T23:22:46.659Z,3.39
2023-04-03T23:25:13.322Z,3.40
2023-04-03T23:27:40.018Z,3.37
2023-04-03T23:30:07.327Z,3.35
2023-04-03T23:32:34.002Z,3.32
2023-04-03T23:35:00.731Z,3.34
2023-04-03T23:37:27.365Z,3.33
2023-04-03T23:39:54.217Z,3.32
2023-04-03T23:42:20.928Z,3.33
2023-04-03T23:44:47.691Z,3.34
2023-04-03T23:47:14.396Z,3.37
2023-04-03T23:49:41.068Z,3.36
2023-04-03T23:52:07.646Z,3.39
2023-04-03T23:54:34.298Z,3.38
2023-04-03T23:57:01.168Z,3.39
2023-04-03T23:59:28.030Z,3.39
